Terminal Aerodrome Forecast
Issued by NWS Jacksonville, FL

Home | Current Version | Previous Version | Text Only | Print | Product List | Glossary On
Versions: 1 2 3 4 5 6 7 8 9 10 11 12 13 14 15 16 17 18 19 20 21 22 23 24 25 26 27
000
FTUS42 KJAX 281743
TAFGNV
TAF
KGNV 281743Z 2818/2918 08010G15KT P6SM VCTS SCT020 BKN030CB BKN200
      TEMPO 2818/2822 VRB20G30KT 3SM +TSRA BR
     FM282300 08008KT P6SM VCTS SCT030CB BKN070 OVC250
     FM290300 11005KT P6SM VCSH SCT025 SCT070 BKN250=

USA.gov is the U.S. government's official web portal to all federal, state and local government web resources and services.